WGN618 KPHX-KRNO
Flight info
| Callsign | WGN618 |
|---|---|
| Flight time | 1h 9m |
| Altitude | 38000 |
| Route | ZEPER2 RRSTA DOVEE BTY KENNO TARVR2 |
| Aircraft | MD1F/H-SDE1E2E3FGHIJ2J3J4J5M1RWXY/LB1D1 |
Departure
| Time | 2026-05-07 19:19 |
|---|---|
| Airport | Phoenix Sky Harbor International Airport (KPHX) |
Arrival
| Time | 2026-05-07 20:29 |
|---|---|
| Airport | Reno Tahoe International Airport (KRNO) |
| Time | Latitude | Longitude | Altitude | Speed | Heading |
|---|---|---|---|---|---|
| 2026-05-07 19:02 | 33.42526 | -112.01836 | 1128 ft | 0 kts | 90° |
| 2026-05-07 19:12 | 33.42526 | -112.01833 | 1128 ft | 1 kts | 90° |
| 2026-05-07 19:13 | 33.42526 | -112.01814 | 1128 ft | 3 kts | 90° |
| 2026-05-07 19:13 | 33.42532 | -112.01778 | 1128 ft | 5 kts | 69° |
| 2026-05-07 19:13 | 33.42563 | -112.01747 | 1128 ft | 7 kts | 13° |
| 2026-05-07 19:13 | 33.42621 | -112.01743 | 1128 ft | 9 kts | 0° |
| 2026-05-07 19:14 | 33.42695 | -112.01743 | 1128 ft | 11 kts | 1° |
| 2026-05-07 19:14 | 33.42760 | -112.01689 | 1130 ft | 12 kts | 65° |
| 2026-05-07 19:14 | 33.42774 | -112.01587 | 1130 ft | 13 kts | 89° |
| 2026-05-07 19:14 | 33.42775 | -112.01466 | 1130 ft | 15 kts | 90° |
| 2026-05-07 19:15 | 33.42774 | -112.01327 | 1130 ft | 17 kts | 90° |
| 2026-05-07 19:15 | 33.42774 | -112.01171 | 1130 ft | 19 kts | 89° |
| 2026-05-07 19:15 | 33.42775 | -112.01004 | 1131 ft | 21 kts | 90° |
| 2026-05-07 19:15 | 33.42775 | -112.00818 | 1131 ft | 23 kts | 90° |
| 2026-05-07 19:16 | 33.42773 | -112.00661 | 1131 ft | 7 kts | 90° |
| 2026-05-07 19:16 | 33.42777 | -112.00586 | 1131 ft | 11 kts | 76° |
| 2026-05-07 19:16 | 33.42848 | -112.00526 | 1131 ft | 15 kts | 10° |
| 2026-05-07 19:16 | 33.42956 | -112.00465 | 1133 ft | 19 kts | 49° |
| 2026-05-07 19:17 | 33.42993 | -112.00298 | 1134 ft | 23 kts | 89° |
| 2026-05-07 19:17 | 33.42994 | -112.00083 | 1134 ft | 28 kts | 90° |
| 2026-05-07 19:17 | 33.42994 | -111.99828 | 1134 ft | 32 kts | 90° |
| 2026-05-07 19:17 | 33.42994 | -111.99540 | 1136 ft | 32 kts | 90° |
| 2026-05-07 19:18 | 33.43007 | -111.99381 | 1137 ft | 17 kts | 48° |
| 2026-05-07 19:18 | 33.43098 | -111.99406 | 1135 ft | 18 kts | 284° |
| 2026-05-07 19:18 | 33.43103 | -111.99567 | 1135 ft | 21 kts | 271° |
| 2026-05-07 19:18 | 33.43106 | -111.99852 | 1134 ft | 60 kts | 269° |
| 2026-05-07 19:19 | 33.43105 | -112.00700 | 1136 ft | 141 kts | 270° |
| 2026-05-07 19:19 | 33.43108 | -112.02129 | 1240 ft | 193 kts | 270° |
| 2026-05-07 19:19 | 33.43119 | -112.03674 | 2125 ft | 188 kts | 270° |
| 2026-05-07 19:19 | 33.43129 | -112.05204 | 3014 ft | 186 kts | 272° |
| 2026-05-07 19:20 | 33.43140 | -112.06760 | 3696 ft | 190 kts | 272° |
| 2026-05-07 19:20 | 33.43153 | -112.08334 | 4335 ft | 194 kts | 272° |
| 2026-05-07 19:20 | 33.43161 | -112.09293 | 4559 ft | 208 kts | 272° |
| 2026-05-07 19:20 | 33.43182 | -112.11163 | 4890 ft | 234 kts | 272° |
| 2026-05-07 19:21 | 33.43210 | -112.13258 | 5323 ft | 256 kts | 272° |
| 2026-05-07 19:21 | 33.43256 | -112.15456 | 6246 ft | 262 kts | 280° |
| 2026-05-07 19:21 | 33.43803 | -112.17523 | 7230 ft | 262 kts | 304° |
| 2026-05-07 19:21 | 33.44997 | -112.19128 | 8181 ft | 261 kts | 330° |
| 2026-05-07 19:22 | 33.46724 | -112.19967 | 9140 ft | 262 kts | 356° |
| 2026-05-07 19:22 | 33.48550 | -112.20026 | 10037 ft | 266 kts | 5° |
| 2026-05-07 19:22 | 33.50539 | -112.19858 | 11078 ft | 271 kts | 5° |
| 2026-05-07 19:22 | 33.52602 | -112.19720 | 12195 ft | 274 kts | 2° |
| 2026-05-07 19:23 | 33.54671 | -112.19760 | 12913 ft | 293 kts | 359° |
| 2026-05-07 19:23 | 33.56886 | -112.19924 | 13287 ft | 323 kts | 358° |
| 2026-05-07 19:23 | 33.59307 | -112.20136 | 13611 ft | 354 kts | 357° |
| 2026-05-07 19:23 | 33.62019 | -112.20478 | 14294 ft | 374 kts | 353° |
| 2026-05-07 19:24 | 33.64842 | -112.21172 | 15290 ft | 386 kts | 349° |
| 2026-05-07 19:24 | 33.67775 | -112.22102 | 16427 ft | 393 kts | 348° |
| 2026-05-07 19:24 | 33.70690 | -112.23071 | 17555 ft | 399 kts | 348° |
| 2026-05-07 19:24 | 33.73558 | -112.24007 | 18622 ft | 404 kts | 348° |
| 2026-05-07 19:25 | 33.76376 | -112.24916 | 19632 ft | 410 kts | 349° |
| 2026-05-07 19:25 | 33.79174 | -112.25816 | 20589 ft | 415 kts | 349° |
| 2026-05-07 19:25 | 33.82082 | -112.26749 | 21605 ft | 419 kts | 349° |
| 2026-05-07 19:25 | 33.85002 | -112.27683 | 22563 ft | 424 kts | 349° |
| 2026-05-07 19:26 | 33.87909 | -112.28619 | 23502 ft | 429 kts | 349° |
| 2026-05-07 19:26 | 33.90908 | -112.29590 | 24445 ft | 434 kts | 349° |
| 2026-05-07 19:26 | 33.93908 | -112.30558 | 25335 ft | 438 kts | 349° |
| 2026-05-07 19:26 | 33.96951 | -112.31540 | 26143 ft | 443 kts | 349° |
| 2026-05-07 19:27 | 34.00041 | -112.32716 | 26959 ft | 451 kts | 342° |
| 2026-05-07 19:27 | 34.03169 | -112.34515 | 27750 ft | 460 kts | 334° |
| 2026-05-07 19:27 | 34.06028 | -112.36757 | 28483 ft | 470 kts | 327° |
| 2026-05-07 19:27 | 34.08610 | -112.39271 | 29199 ft | 476 kts | 325° |
| 2026-05-07 19:28 | 34.11315 | -112.42032 | 29958 ft | 480 kts | 324° |
| 2026-05-07 19:28 | 34.14183 | -112.44971 | 30797 ft | 483 kts | 324° |
| 2026-05-07 19:28 | 34.17182 | -112.48030 | 31788 ft | 482 kts | 326° |
| 2026-05-07 19:28 | 34.20150 | -112.51018 | 32777 ft | 479 kts | 324° |
| 2026-05-07 19:29 | 34.23186 | -112.54092 | 33739 ft | 476 kts | 325° |
| 2026-05-07 19:29 | 34.26202 | -112.57155 | 34586 ft | 474 kts | 325° |
| 2026-05-07 19:29 | 34.29286 | -112.60263 | 35398 ft | 471 kts | 324° |
| 2026-05-07 19:29 | 34.32278 | -112.63293 | 36093 ft | 470 kts | 323° |
| 2026-05-07 19:30 | 34.35229 | -112.66319 | 36764 ft | 467 kts | 325° |
| 2026-05-07 19:30 | 34.38237 | -112.69288 | 37314 ft | 467 kts | 322° |
| 2026-05-07 19:30 | 34.41190 | -112.72304 | 37796 ft | 465 kts | 324° |
| 2026-05-07 19:30 | 34.44161 | -112.75288 | 38171 ft | 465 kts | 322° |
| 2026-05-07 19:31 | 34.50082 | -112.81311 | 38101 ft | 461 kts | 322° |
| 2026-05-07 19:31 | 34.55930 | -112.87224 | 38164 ft | 463 kts | 324° |
| 2026-05-07 19:32 | 34.61853 | -112.93227 | 38174 ft | 465 kts | 322° |
| 2026-05-07 19:32 | 34.67691 | -112.99222 | 38202 ft | 464 kts | 322° |
| 2026-05-07 19:33 | 34.73569 | -113.05276 | 38226 ft | 464 kts | 324° |
| 2026-05-07 19:33 | 34.78926 | -113.11878 | 38282 ft | 470 kts | 307° |
| 2026-05-07 19:34 | 34.82722 | -113.20097 | 38259 ft | 477 kts | 295° |
| 2026-05-07 19:34 | 34.83872 | -113.24552 | 38267 ft | 482 kts | 284° |
| 2026-05-07 19:34 | 34.84552 | -113.29220 | 38245 ft | 483 kts | 285° |
| 2026-05-07 19:35 | 34.87095 | -113.38218 | 38239 ft | 476 kts | 300° |
| 2026-05-07 19:35 | 34.90530 | -113.46692 | 38204 ft | 476 kts | 300° |
| 2026-05-07 19:36 | 34.93938 | -113.55105 | 38200 ft | 476 kts | 300° |
| 2026-05-07 19:36 | 34.97355 | -113.63536 | 38201 ft | 476 kts | 300° |
| 2026-05-07 19:37 | 35.00653 | -113.71646 | 38188 ft | 475 kts | 300° |
| 2026-05-07 19:37 | 35.04126 | -113.80164 | 38202 ft | 475 kts | 300° |
| 2026-05-07 19:38 | 35.07571 | -113.88591 | 38212 ft | 475 kts | 300° |
| 2026-05-07 19:38 | 35.11015 | -113.96999 | 38208 ft | 474 kts | 301° |
| 2026-05-07 19:39 | 35.14519 | -114.05529 | 38186 ft | 474 kts | 301° |
| 2026-05-07 19:39 | 35.18034 | -114.14056 | 38164 ft | 474 kts | 301° |
| 2026-05-07 19:40 | 35.21483 | -114.22414 | 38132 ft | 473 kts | 301° |
| 2026-05-07 19:40 | 35.24923 | -114.30737 | 38098 ft | 473 kts | 300° |
| 2026-05-07 19:41 | 35.28265 | -114.39106 | 38077 ft | 472 kts | 301° |
| 2026-05-07 19:41 | 35.31668 | -114.47553 | 38076 ft | 472 kts | 300° |
| 2026-05-07 19:42 | 35.35006 | -114.55923 | 38080 ft | 473 kts | 301° |
| 2026-05-07 19:42 | 35.38353 | -114.64246 | 38079 ft | 473 kts | 300° |
| 2026-05-07 19:43 | 35.41807 | -114.72803 | 38076 ft | 472 kts | 300° |
| 2026-05-07 19:43 | 35.45680 | -114.80920 | 38069 ft | 466 kts | 311° |
| 2026-05-07 19:44 | 35.50521 | -114.88033 | 38074 ft | 463 kts | 314° |
| 2026-05-07 19:44 | 35.55397 | -114.95016 | 38084 ft | 463 kts | 314° |
| 2026-05-07 19:45 | 35.60284 | -115.01985 | 38086 ft | 464 kts | 315° |
| 2026-05-07 19:45 | 35.65179 | -115.08957 | 38089 ft | 464 kts | 315° |
| 2026-05-07 19:46 | 35.70069 | -115.15919 | 38083 ft | 463 kts | 315° |
| 2026-05-07 19:46 | 35.74903 | -115.22791 | 38084 ft | 463 kts | 315° |
| 2026-05-07 19:47 | 35.79755 | -115.29679 | 38083 ft | 464 kts | 315° |
| 2026-05-07 19:47 | 35.84626 | -115.36591 | 38091 ft | 464 kts | 315° |
| 2026-05-07 19:48 | 35.89484 | -115.43476 | 38106 ft | 464 kts | 315° |
| 2026-05-07 19:48 | 35.94260 | -115.50231 | 38132 ft | 464 kts | 315° |
| 2026-05-07 19:49 | 35.99003 | -115.56937 | 38148 ft | 464 kts | 315° |
| 2026-05-07 19:49 | 36.03870 | -115.63816 | 38148 ft | 464 kts | 314° |
| 2026-05-07 19:50 | 36.08752 | -115.70927 | 38150 ft | 464 kts | 314° |
| 2026-05-07 19:50 | 36.13651 | -115.78077 | 38168 ft | 464 kts | 314° |
| 2026-05-07 19:51 | 36.18459 | -115.85080 | 38175 ft | 464 kts | 314° |
| 2026-05-07 19:51 | 36.23320 | -115.92152 | 38172 ft | 465 kts | 314° |
| 2026-05-07 19:52 | 36.28127 | -115.99139 | 38147 ft | 464 kts | 314° |
| 2026-05-07 19:52 | 36.32927 | -116.06111 | 38135 ft | 463 kts | 314° |
| 2026-05-07 19:53 | 36.37687 | -116.13022 | 38141 ft | 464 kts | 314° |
| 2026-05-07 19:53 | 36.42474 | -116.19959 | 38135 ft | 464 kts | 314° |
| 2026-05-07 19:54 | 36.47245 | -116.26868 | 38118 ft | 463 kts | 314° |
| 2026-05-07 19:54 | 36.51995 | -116.33733 | 38103 ft | 463 kts | 314° |
| 2026-05-07 19:55 | 36.56768 | -116.40643 | 38106 ft | 462 kts | 314° |
| 2026-05-07 19:55 | 36.61569 | -116.47700 | 38110 ft | 462 kts | 313° |
| 2026-05-07 19:56 | 36.66334 | -116.54715 | 38124 ft | 463 kts | 313° |
| 2026-05-07 19:56 | 36.71086 | -116.61741 | 38137 ft | 463 kts | 313° |
| 2026-05-07 19:57 | 36.75845 | -116.68765 | 38133 ft | 463 kts | 313° |
| 2026-05-07 19:57 | 36.81012 | -116.75591 | 38153 ft | 460 kts | 319° |
| 2026-05-07 19:58 | 36.86467 | -116.81958 | 38163 ft | 460 kts | 320° |
| 2026-05-07 19:58 | 36.91897 | -116.88096 | 38185 ft | 460 kts | 320° |
| 2026-05-07 19:59 | 36.97384 | -116.94323 | 38198 ft | 459 kts | 320° |
| 2026-05-07 19:59 | 37.02862 | -117.00540 | 38217 ft | 458 kts | 320° |
| 2026-05-07 20:00 | 37.08369 | -117.06782 | 38223 ft | 460 kts | 320° |
| 2026-05-07 20:00 | 37.13999 | -117.13157 | 38230 ft | 460 kts | 320° |
| 2026-05-07 20:01 | 37.19591 | -117.19474 | 38238 ft | 458 kts | 320° |
| 2026-05-07 20:01 | 37.25217 | -117.25829 | 38251 ft | 458 kts | 320° |
| 2026-05-07 20:02 | 37.30770 | -117.32098 | 38254 ft | 458 kts | 321° |
| 2026-05-07 20:02 | 37.35879 | -117.37471 | 38257 ft | 458 kts | 320° |
| 2026-05-07 20:03 | 37.41337 | -117.43330 | 38270 ft | 458 kts | 321° |
| 2026-05-07 20:03 | 37.47104 | -117.49502 | 38273 ft | 457 kts | 321° |
| 2026-05-07 20:04 | 37.52249 | -117.56419 | 38294 ft | 460 kts | 309° |
| 2026-05-07 20:04 | 37.56855 | -117.63985 | 38301 ft | 461 kts | 310° |
| 2026-05-07 20:05 | 37.61519 | -117.71557 | 38292 ft | 461 kts | 309° |
| 2026-05-07 20:05 | 37.66185 | -117.79108 | 38296 ft | 460 kts | 310° |
| 2026-05-07 20:06 | 37.70869 | -117.86680 | 38293 ft | 460 kts | 310° |
| 2026-05-07 20:06 | 37.75540 | -117.94226 | 38291 ft | 460 kts | 310° |
| 2026-05-07 20:07 | 37.80189 | -118.01730 | 38270 ft | 460 kts | 310° |
| 2026-05-07 20:07 | 37.84818 | -118.09190 | 38276 ft | 460 kts | 310° |
| 2026-05-07 20:08 | 37.89455 | -118.16656 | 38286 ft | 461 kts | 310° |
| 2026-05-07 20:08 | 37.94064 | -118.24068 | 38296 ft | 461 kts | 310° |
| 2026-05-07 20:09 | 37.96385 | -118.27799 | 38110 ft | 462 kts | 310° |
| 2026-05-07 20:09 | 37.98759 | -118.31615 | 37286 ft | 464 kts | 310° |
| 2026-05-07 20:09 | 38.01110 | -118.35386 | 36600 ft | 459 kts | 310° |
| 2026-05-07 20:10 | 38.05657 | -118.42828 | 35255 ft | 457 kts | 309° |
| 2026-05-07 20:10 | 38.07929 | -118.46609 | 34588 ft | 460 kts | 309° |
| 2026-05-07 20:10 | 38.10206 | -118.50391 | 33904 ft | 464 kts | 309° |
| 2026-05-07 20:10 | 38.12567 | -118.54311 | 33252 ft | 467 kts | 309° |
| 2026-05-07 20:11 | 38.14895 | -118.58175 | 32563 ft | 471 kts | 309° |
| 2026-05-07 20:11 | 38.17249 | -118.62079 | 31855 ft | 473 kts | 309° |
| 2026-05-07 20:11 | 38.19644 | -118.66052 | 31123 ft | 476 kts | 309° |
| 2026-05-07 20:11 | 38.21996 | -118.69953 | 30412 ft | 473 kts | 309° |
| 2026-05-07 20:12 | 38.24353 | -118.73859 | 29706 ft | 474 kts | 309° |
| 2026-05-07 20:12 | 38.26722 | -118.77782 | 28984 ft | 476 kts | 309° |
| 2026-05-07 20:12 | 38.29077 | -118.81676 | 28276 ft | 478 kts | 309° |
| 2026-05-07 20:12 | 38.31497 | -118.85677 | 27539 ft | 480 kts | 309° |
| 2026-05-07 20:13 | 38.33644 | -118.89225 | 26896 ft | 482 kts | 309° |
| 2026-05-07 20:13 | 38.35680 | -118.92590 | 26281 ft | 483 kts | 309° |
| 2026-05-07 20:13 | 38.37748 | -118.95998 | 25659 ft | 485 kts | 309° |
| 2026-05-07 20:13 | 38.39834 | -118.99435 | 25026 ft | 485 kts | 309° |
| 2026-05-07 20:14 | 38.41873 | -119.02800 | 24400 ft | 479 kts | 309° |
| 2026-05-07 20:14 | 38.43916 | -119.06168 | 23765 ft | 472 kts | 309° |
| 2026-05-07 20:14 | 38.45916 | -119.09456 | 23168 ft | 466 kts | 309° |
| 2026-05-07 20:14 | 38.47884 | -119.12692 | 22594 ft | 462 kts | 309° |
| 2026-05-07 20:15 | 38.49855 | -119.15939 | 22097 ft | 458 kts | 308° |
| 2026-05-07 20:15 | 38.51673 | -119.19284 | 21829 ft | 458 kts | 305° |
| 2026-05-07 20:15 | 38.53444 | -119.22718 | 21514 ft | 458 kts | 304° |
| 2026-05-07 20:15 | 38.55232 | -119.26194 | 21184 ft | 456 kts | 304° |
| 2026-05-07 20:16 | 38.57008 | -119.29665 | 20857 ft | 454 kts | 304° |
| 2026-05-07 20:16 | 38.58736 | -119.33041 | 20537 ft | 451 kts | 304° |
| 2026-05-07 20:16 | 38.60462 | -119.36410 | 20215 ft | 448 kts | 304° |
| 2026-05-07 20:16 | 38.62201 | -119.39798 | 19896 ft | 445 kts | 304° |
| 2026-05-07 20:17 | 38.63913 | -119.43127 | 19591 ft | 442 kts | 304° |
| 2026-05-07 20:17 | 38.65592 | -119.46385 | 19265 ft | 440 kts | 304° |
| 2026-05-07 20:17 | 38.67289 | -119.49676 | 18902 ft | 438 kts | 304° |
| 2026-05-07 20:17 | 38.69004 | -119.53006 | 18580 ft | 435 kts | 304° |
| 2026-05-07 20:18 | 38.70704 | -119.56306 | 18273 ft | 433 kts | 304° |
| 2026-05-07 20:18 | 38.72374 | -119.59543 | 17976 ft | 431 kts | 304° |
| 2026-05-07 20:18 | 38.74052 | -119.62788 | 17675 ft | 430 kts | 304° |
| 2026-05-07 20:18 | 38.75780 | -119.66132 | 17375 ft | 428 kts | 303° |
| 2026-05-07 20:19 | 38.77478 | -119.69418 | 17092 ft | 426 kts | 303° |
| 2026-05-07 20:19 | 38.79252 | -119.72768 | 16498 ft | 425 kts | 304° |
| 2026-05-07 20:19 | 38.81161 | -119.76342 | 15842 ft | 421 kts | 304° |
| 2026-05-07 20:19 | 38.83339 | -119.79740 | 15157 ft | 415 kts | 319° |
| 2026-05-07 20:20 | 38.86227 | -119.81888 | 14695 ft | 412 kts | 340° |
| 2026-05-07 20:20 | 38.89426 | -119.82536 | 14217 ft | 415 kts | 1° |
| 2026-05-07 20:20 | 38.92533 | -119.81863 | 13654 ft | 415 kts | 13° |
| 2026-05-07 20:20 | 38.95412 | -119.80698 | 13109 ft | 416 kts | 16° |
| 2026-05-07 20:21 | 38.98276 | -119.79460 | 12519 ft | 418 kts | 17° |
| 2026-05-07 20:21 | 39.01034 | -119.78301 | 11871 ft | 406 kts | 12° |
| 2026-05-07 20:21 | 39.03769 | -119.77570 | 11552 ft | 377 kts | 5° |
| 2026-05-07 20:21 | 39.06329 | -119.77222 | 11279 ft | 355 kts | 5° |
| 2026-05-07 20:22 | 39.08834 | -119.76696 | 11137 ft | 331 kts | 9° |
| 2026-05-07 20:22 | 39.11172 | -119.76440 | 11099 ft | 301 kts | 355° |
| 2026-05-07 20:22 | 39.13373 | -119.76567 | 10655 ft | 287 kts | 354° |
| 2026-05-07 20:22 | 39.15485 | -119.76708 | 10348 ft | 269 kts | 355° |
| 2026-05-07 20:23 | 39.17421 | -119.76762 | 10064 ft | 247 kts | 357° |
| 2026-05-07 20:23 | 39.19173 | -119.76749 | 10040 ft | 226 kts | 357° |
| 2026-05-07 20:23 | 39.20797 | -119.76752 | 9743 ft | 225 kts | 356° |
| 2026-05-07 20:23 | 39.22377 | -119.76756 | 9492 ft | 218 kts | 356° |
| 2026-05-07 20:24 | 39.23960 | -119.76752 | 9278 ft | 217 kts | 356° |
| 2026-05-07 20:24 | 39.25570 | -119.76742 | 9050 ft | 217 kts | 356° |
| 2026-05-07 20:24 | 39.27249 | -119.76733 | 8800 ft | 216 kts | 357° |
| 2026-05-07 20:24 | 39.28842 | -119.76727 | 8544 ft | 211 kts | 356° |
| 2026-05-07 20:25 | 39.30345 | -119.76726 | 8331 ft | 198 kts | 356° |
| 2026-05-07 20:25 | 39.31739 | -119.76723 | 8315 ft | 187 kts | 356° |
| 2026-05-07 20:25 | 39.33108 | -119.76729 | 8175 ft | 188 kts | 356° |
| 2026-05-07 20:25 | 39.34448 | -119.76728 | 7800 ft | 184 kts | 356° |
| 2026-05-07 20:26 | 39.35751 | -119.76720 | 7507 ft | 178 kts | 356° |
| 2026-05-07 20:26 | 39.37022 | -119.76711 | 7271 ft | 180 kts | 356° |
| 2026-05-07 20:26 | 39.38290 | -119.76711 | 6974 ft | 179 kts | 356° |
| 2026-05-07 20:26 | 39.39575 | -119.76709 | 6697 ft | 175 kts | 356° |
| 2026-05-07 20:27 | 39.40889 | -119.76704 | 6437 ft | 175 kts | 356° |
| 2026-05-07 20:27 | 39.42229 | -119.76696 | 6135 ft | 175 kts | 354° |
| 2026-05-07 20:27 | 39.43592 | -119.76696 | 5806 ft | 171 kts | 356° |
| 2026-05-07 20:27 | 39.44944 | -119.76643 | 5494 ft | 176 kts | 356° |
| 2026-05-07 20:28 | 39.46321 | -119.76688 | 4979 ft | 173 kts | 355° |
| 2026-05-07 20:28 | 39.47700 | -119.76672 | 4683 ft | 171 kts | 352° |
| 2026-05-07 20:28 | 39.49095 | -119.76681 | 4467 ft | 174 kts | 355° |
| 2026-05-07 20:28 | 39.50184 | -119.76675 | 4417 ft | 59 kts | 0° |
| 2026-05-07 20:29 | 39.50262 | -119.76674 | 4417 ft | 0 kts | 0° |